MDW weather

Chicago Midway International Airport
Chicago, Illinois, United States

Public forecast

Using degrees Fahrenheit for public forecast. Weather courtesy of forecast.io.

METAR (pilot weather report)

Retrieved 2018/02/24 10:53 UTC (55 minutes ago):

KMDW 241053Z 07011KT 7SM BKN011 OVC022 02/00 A3019 RMK AO2 SLP231 T00220000

TAF (pilot weather forecast)

Retrieved 2018/02/24 06:22 UTC (5 hours ago):

TAF KMDW 240520Z 2406/2512 34006KT P6SM SCT015 OVC200 FM241000 05007KT P6SM OVC018 FM241400 08011KT P6SM OVC015 FM250000 11013G18KT 6SM -RA BR OVC008 FM250300 14014G21KT 2SM -RA BR OVC004 WS020/19045KT FM250600 19014G21KT 3SM -RA BR OVC005 WS020/20045KT FM250900 25022G33KT P6SM BKN020